Time;durP1;ratioP1;P1;durP2;ratioP2;P2;SDS_P1;SDS_P2;PMS_P1;PMS_P2;Temp;Humidity;BMP_temperature;BMP_pressure;BME280_temperature;BME280_humidity;BME280_pressure;Samples;Min_cycle;Max_cycle;Signal;HPM_P1;HPM_P2
2023/10/09 00:03:00;;;;;;;64.45;54.05;;;23.10;99.90;;;;;;5064330;28;20777;-63
2023/10/09 00:05:45;;;;;;;66.88;55.08;;;23.00;99.90;;;;;;5049131;28;20052;-66
2023/10/09 00:08:30;;;;;;;64.30;54.78;;;23.90;99.90;;;;;;5057774;28;20063;-66
2023/10/09 00:11:15;;;;;;;74.80;56.78;;;23.00;99.90;;;;;;5068885;28;20414;-66
2023/10/09 00:13:52;;;;;;;71.60;58.53;;;22.60;99.90;;;;;;5057880;28;20041;-66
2023/10/09 00:16:24;;;;;;;76.63;60.33;;;22.60;99.90;;;;;;5048539;28;20044;-66
2023/10/09 00:18:50;;;;;;;77.88;60.40;;;22.40;99.90;;;;;;5050164;28;20051;-65
2023/10/09 00:21:22;;;;;;;75.90;60.85;;;22.80;99.90;;;;;;5055805;28;20045;-65
2023/10/09 00:23:59;;;;;;;78.72;61.80;;;22.80;99.90;;;;;;5067954;28;20083;-65
2023/10/09 00:26:25;;;;;;;85.57;65.35;;;23.40;99.90;;;;;;5068106;28;20044;-65
2023/10/09 00:28:51;;;;;;;88.97;66.05;;;22.50;99.90;;;;;;5066440;28;20093;-65
2023/10/09 00:31:29;;;;;;;89.28;66.80;;;23.10;99.90;;;;;;5068321;28;20127;-66
2023/10/09 00:34:01;;;;;;;87.68;68.07;;;23.60;99.90;;;;;;5067443;28;20106;-66
2023/10/09 00:36:30;;;;;;;96.95;72.05;;;22.90;99.90;;;;;;5050961;28;20491;-66
2023/10/09 00:38:59;;;;;;;91.70;67.20;;;23.20;99.90;;;;;;5048169;28;20064;-66
2023/10/09 00:41:24;;;;;;;95.03;68.95;;;22.00;99.90;;;;;;5046654;28;20530;-65
2023/10/09 00:43:52;;;;;;;89.93;68.10;;;22.30;99.90;;;;;;5048112;28;20044;-66
2023/10/09 00:48:51;;;;;;;88.13;66.40;;;22.40;99.90;;;;;;5048133;28;20045;-66
2023/10/09 00:51:24;;;;;;;81.80;63.60;;;22.10;99.90;;;;;;5047513;28;20396;-65
2023/10/09 00:53:58;;;;;;;90.15;64.80;;;23.60;99.90;;;;;;5054793;28;20048;-66
2023/10/09 00:59:14;;;;;;;90.50;63.90;;;22.00;99.90;;;;;;5063249;28;20136;-66
2023/10/09 01:01:45;;;;;;;86.45;62.90;;;23.60;99.90;;;;;;5067393;28;20041;-65
2023/10/09 01:04:15;;;;;;;78.47;61.67;;;23.60;99.90;;;;;;5053029;28;20505;-66
2023/10/09 01:07:04;;;;;;;79.70;62.60;;;23.00;99.90;;;;;;5066980;28;20086;-66
2023/10/09 01:09:36;;;;;;;80.90;62.03;;;22.30;99.90;;;;;;5050377;28;20045;-65
2023/10/09 01:14:27;;;;;;;76.80;58.35;;;23.80;99.90;;;;;;5065830;28;20059;-65
2023/10/09 01:16:54;;;;;;;81.55;58.90;;;23.50;99.90;;;;;;5060061;28;20038;-66
2023/10/09 01:19:23;;;;;;;73.93;56.63;;;23.80;99.90;;;;;;5066541;28;20551;-65
2023/10/09 01:21:51;;;;;;;73.90;55.40;;;23.60;99.90;;;;;;5047676;28;20121;-65
2023/10/09 01:24:19;;;;;;;71.18;55.92;;;23.90;99.90;;;;;;5047278;28;20394;-66
2023/10/09 01:26:46;;;;;;;70.93;57.08;;;23.90;99.90;;;;;;5046936;28;20111;-66
2023/10/09 01:29:14;;;;;;;70.40;56.08;;;24.00;99.90;;;;;;5059598;28;20055;-66
2023/10/09 01:32:04;;;;;;;69.35;56.28;;;22.30;99.90;;;;;;5063047;28;20494;-65
2023/10/09 01:37:26;;;;;;;71.60;54.10;;;22.20;99.90;;;;;;5052029;28;20560;-66
2023/10/09 01:40:24;;;;;;;63.70;52.28;;;23.10;99.90;;;;;;5063164;28;20098;-67
2023/10/09 01:42:45;;;;;;;65.60;52.47;;;24.10;99.90;;;;;;5059908;28;20044;-65
2023/10/09 01:47:55;;;;;;;65.97;51.43;;;24.00;99.90;;;;;;5046389;28;20490;-66
2023/10/09 01:50:30;;;;;;;63.97;50.77;;;22.40;99.90;;;;;;5017468;28;1047844;-66
2023/10/09 01:52:56;;;;;;;61.60;49.88;;;22.80;99.90;;;;;;5058740;28;20064;-66
2023/10/09 01:55:29;;;;;;;61.65;49.72;;;22.40;99.90;;;;;;5047503;28;20592;-65
2023/10/09 01:58:02;;;;;;;58.80;48.28;;;23.90;99.90;;;;;;5062124;28;20136;-66
2023/10/09 02:00:29;;;;;;;57.53;47.03;;;24.10;99.90;;;;;;5067582;28;20058;-66
2023/10/09 02:02:54;;;;;;;55.90;44.95;;;22.60;99.90;;;;;;5060861;28;20717;-67
2023/10/09 02:07:51;;;;;;;57.83;42.67;;;23.00;99.90;;;;;;5047235;28;20059;-66
2023/10/09 02:10:25;;;;;;;51.67;40.47;;;23.10;99.90;;;;;;5047138;28;20041;-66
2023/10/09 02:13:00;;;;;;;44.95;40.53;;;22.90;99.90;;;;;;5034708;28;20051;-65
2023/10/09 02:23:46;;;;;;;45.47;37.95;;;22.80;99.90;;;;;;5055834;28;20059;-66
2023/10/09 02:29:03;;;;;;;45.30;39.47;;;24.50;99.90;;;;;;5054926;28;20179;-65
2023/10/09 02:31:43;;;;;;;43.90;37.80;;;24.50;99.90;;;;;;5046945;28;20434;-66
2023/10/09 02:34:15;;;;;;;44.65;38.58;;;23.50;99.90;;;;;;5061153;28;20064;-66
2023/10/09 02:36:48;;;;;;;43.33;38.65;;;24.00;99.90;;;;;;5054861;28;20503;-66
2023/10/09 02:39:23;;;;;;;42.08;37.70;;;23.40;99.90;;;;;;5045544;28;20045;-67
2023/10/09 02:42:00;;;;;;;42.17;37.75;;;24.50;99.90;;;;;;5049817;28;20074;-66
2023/10/09 02:44:26;;;;;;;43.10;37.25;;;23.20;99.90;;;;;;5047032;28;20530;-66
2023/10/09 02:46:57;;;;;;;42.60;38.05;;;24.00;99.90;;;;;;5046917;28;20045;-66
2023/10/09 02:49:22;;;;;;;42.85;37.45;;;24.50;99.90;;;;;;5054244;28;20040;-66
2023/10/09 02:51:53;;;;;;;42.97;38.38;;;23.30;99.90;;;;;;5070212;28;20510;-66
2023/10/09 02:54:26;;;;;;;44.10;36.83;;;24.50;99.90;;;;;;5069669;28;20097;-66
2023/10/09 02:57:08;;;;;;;43.00;37.17;;;23.70;99.90;;;;;;5059650;28;20398;-66
2023/10/09 02:59:37;;;;;;;42.47;37.90;;;24.40;99.90;;;;;;5056590;28;20072;-66
2023/10/09 03:02:03;;;;;;;42.53;38.08;;;23.40;99.90;;;;;;5069858;28;20044;-66
2023/10/09 03:04:31;;;;;;;41.58;36.97;;;24.00;99.90;;;;;;5070610;28;20059;-66
2023/10/09 03:07:00;;;;;;;46.03;37.33;;;24.50;99.90;;;;;;5069513;28;20036;-66
2023/10/09 03:09:27;;;;;;;42.67;37.00;;;23.40;99.90;;;;;;5063931;28;20045;-66
2023/10/09 03:11:54;;;;;;;41.58;36.88;;;24.20;99.90;;;;;;5068914;28;20040;-66
2023/10/09 03:14:20;;;;;;;41.38;36.97;;;24.60;99.90;;;;;;5070266;28;20082;-66
2023/10/09 03:16:48;;;;;;;42.17;37.67;;;23.90;99.90;;;;;;5061818;28;20110;-66
2023/10/09 03:19:14;;;;;;;42.28;37.70;;;24.00;99.90;;;;;;5050422;28;20048;-65
2023/10/09 03:21:40;;;;;;;43.88;39.30;;;24.60;99.90;;;;;;5069236;28;20044;-66
2023/10/09 03:24:07;;;;;;;41.13;36.88;;;23.50;99.90;;;;;;5068258;28;20413;-66
2023/10/09 03:26:33;;;;;;;43.67;38.05;;;24.10;99.90;;;;;;5069064;28;20068;-64
2023/10/09 03:29:01;;;;;;;48.65;37.92;;;24.30;99.90;;;;;;5069149;28;20045;-64
2023/10/09 03:31:30;;;;;;;42.08;37.13;;;24.30;99.90;;;;;;5050815;28;20045;-64
2023/10/09 03:33:56;;;;;;;46.05;36.65;;;24.60;99.90;;;;;;5049494;28;20049;-64
2023/10/09 03:36:21;;;;;;;45.10;38.70;;;23.70;99.90;;;;;;5049861;28;20055;-64
2023/10/09 03:38:48;;;;;;;46.90;37.35;;;24.00;99.90;;;;;;5055947;28;20072;-64
2023/10/09 03:41:14;;;;;;;44.78;37.17;;;24.60;99.90;;;;;;5065103;28;20040;-64
2023/10/09 03:43:41;;;;;;;46.63;38.10;;;23.90;99.90;;;;;;5069559;28;20550;-64
2023/10/09 03:46:20;;;;;;;47.58;36.70;;;24.20;99.90;;;;;;5068427;28;20491;-64
2023/10/09 03:48:49;;;;;;;46.70;36.80;;;24.70;99.90;;;;;;5066972;28;20048;-64
2023/10/09 03:51:21;;;;;;;43.83;37.42;;;24.30;99.90;;;;;;5053322;28;20568;-64
2023/10/09 03:53:52;;;;;;;44.53;36.00;;;24.70;99.90;;;;;;5063909;28;20453;-64
2023/10/09 03:56:21;;;;;;;46.88;37.00;;;24.30;99.90;;;;;;5069150;28;20044;-64
2023/10/09 03:58:54;;;;;;;52.80;37.83;;;23.80;99.90;;;;;;5069235;28;20036;-64
2023/10/09 04:01:37;;;;;;;42.85;35.83;;;23.90;99.90;;;;;;5051738;28;20398;-64
2023/10/09 04:04:06;;;;;;;41.60;36.35;;;25.50;99.90;;;;;;5049029;28;20095;-63
2023/10/09 04:06:32;;;;;;;49.35;38.65;;;25.30;99.90;;;;;;5063570;28;20044;-63
2023/10/09 04:11:47;;;;;;;45.08;37.53;;;23.80;99.90;;;;;;5067396;28;20083;-64
2023/10/09 04:14:24;;;;;;;45.92;38.10;;;24.60;99.90;;;;;;5054464;28;20047;-64
2023/10/09 04:17:03;;;;;;;47.03;39.30;;;24.20;99.90;;;;;;5048358;28;20116;-63
2023/10/09 04:19:29;;;;;;;46.58;37.90;;;23.90;99.90;;;;;;5048884;28;20463;-64
2023/10/09 04:21:58;;;;;;;45.38;38.50;;;23.80;99.90;;;;;;5067353;28;20130;-64
2023/10/09 04:24:24;;;;;;;44.15;37.10;;;23.70;99.90;;;;;;5068303;28;20123;-64
2023/10/09 04:26:56;;;;;;;47.45;39.88;;;24.70;99.90;;;;;;5069115;28;20119;-63
2023/10/09 04:29:28;;;;;;;44.75;39.95;;;23.80;99.90;;;;;;5052505;28;20414;-64
2023/10/09 04:31:56;;;;;;;43.92;39.22;;;24.60;99.90;;;;;;5067573;28;20037;-63
2023/10/09 04:38:04;;;;;;;49.40;40.10;;;23.60;99.90;;;;;;5062286;28;20101;-62
2023/10/09 04:39:48;;;;;;;50.33;37.38;;;24.10;99.90;;;;;;5067260;28;20513;-64
2023/10/09 04:47:38;;;;;;;49.85;38.35;;;23.60;99.90;;;;;;5066573;28;20460;-62
2023/10/09 04:50:36;;;;;;;49.88;38.83;;;23.70;99.90;;;;;;5068129;28;20230;-62
2023/10/09 04:55:57;;;;;;;47.58;39.10;;;24.50;99.90;;;;;;5046039;28;20044;-62
2023/10/09 04:58:26;;;;;;;46.10;37.80;;;24.50;99.90;;;;;;5062758;28;20478;-63
2023/10/09 05:03:42;;;;;;;48.85;39.53;;;24.40;99.90;;;;;;5049476;28;20059;-62
2023/10/09 05:06:20;;;;;;;54.97;39.92;;;24.80;99.90;;;;;;5057140;28;20068;-62
2023/10/09 05:08:47;;;;;;;48.65;38.85;;;24.30;99.90;;;;;;5056834;28;20415;-63
2023/10/09 05:11:34;;;;;;;47.58;39.13;;;24.50;99.90;;;;;;5053535;28;20045;-62
2023/10/09 05:14:12;;;;;;;47.72;38.60;;;23.80;99.90;;;;;;5060727;28;20155;-61
2023/10/09 05:16:53;;;;;;;51.42;39.08;;;24.40;99.90;;;;;;5055883;28;20036;-62
2023/10/09 05:19:29;;;;;;;47.10;38.58;;;24.70;99.90;;;;;;5057842;28;20094;-61
2023/10/09 05:21:58;;;;;;;52.50;40.10;;;24.20;99.90;;;;;;5050472;28;20045;-62
2023/10/09 05:24:26;;;;;;;55.30;39.92;;;24.20;99.90;;;;;;5059343;28;20041;-61
2023/10/09 05:26:52;;;;;;;55.70;40.28;;;24.50;99.90;;;;;;5063109;28;20094;-62
2023/10/09 05:37:34;;;;;;;49.20;39.75;;;24.50;99.90;;;;;;5056351;28;20048;-62
2023/10/09 05:50:37;;;;;;;48.30;38.90;;;23.50;99.90;;;;;;5063205;28;20046;-64
2023/10/09 05:57:19;;;;;;;56.17;39.97;;;23.60;99.90;;;;;;5052093;28;20045;-63
2023/10/09 06:04:15;;;;;;;46.75;38.35;;;24.40;99.90;;;;;;5060257;28;20048;-63
2023/10/09 06:06:45;;;;;;;46.97;40.22;;;24.40;99.90;;;;;;5052533;28;20041;-63
2023/10/09 06:11:48;;;;;;;50.40;38.63;;;23.60;99.90;;;;;;5061846;28;20144;-64
2023/10/09 06:14:24;;;;;;;45.25;37.70;;;23.70;99.90;;;;;;5066797;28;20494;-64
2023/10/09 06:24:22;;;;;;;44.65;36.97;;;23.70;99.90;;;;;;5055600;28;20106;-64
2023/10/09 06:29:35;;;;;;;46.80;36.38;;;23.50;99.90;;;;;;5059986;28;20132;-63
2023/10/09 06:34:56;;;;;;;45.87;37.63;;;23.40;99.90;;;;;;5060354;28;20048;-64
2023/10/09 06:42:30;;;;;;;45.35;37.20;;;23.90;99.90;;;;;;5065667;28;20490;-64
2023/10/09 06:45:18;;;;;;;45.10;36.13;;;24.20;99.90;;;;;;5068140;28;20082;-64
2023/10/09 06:48:09;;;;;;;49.15;37.95;;;24.50;99.90;;;;;;5061938;28;20670;-64
2023/10/09 06:53:20;;;;;;;45.92;36.20;;;23.70;99.90;;;;;;5063019;28;20053;-64
2023/10/09 06:55:48;;;;;;;45.17;36.05;;;23.60;99.90;;;;;;5063119;28;20041;-65
2023/10/09 06:58:27;;;;;;;48.63;37.60;;;23.40;99.90;;;;;;5065045;28;20807;-65
2023/10/09 07:03:51;;;;;;;49.55;37.97;;;24.20;99.90;;;;;;5065759;28;20443;-64
2023/10/09 07:06:24;;;;;;;47.30;40.17;;;24.50;99.90;;;;;;5060732;28;20051;-64
2023/10/09 07:09:15;;;;;;;51.30;37.80;;;24.40;99.90;;;;;;5064815;28;20087;-64
2023/10/09 07:16:59;;;;;;;46.15;40.58;;;23.40;99.90;;;;;;5059528;28;20110;-64
2023/10/09 07:19:57;;;;;;;47.10;38.55;;;24.50;99.90;;;;;;5062691;28;20131;-65
2023/10/09 07:24:49;;;;;;;50.72;41.28;;;23.60;99.90;;;;;;5066816;28;20517;-65
2023/10/09 07:35:46;;;;;;;52.45;39.35;;;23.90;99.90;;;;;;5060539;28;20044;-64
2023/10/09 07:38:28;;;;;;;47.90;39.17;;;24.00;99.90;;;;;;5060605;28;20045;-64
2023/10/09 07:43:39;;;;;;;49.97;38.97;;;23.80;99.90;;;;;;5060648;28;20048;-64
2023/10/09 07:46:30;;;;;;;47.72;40.15;;;23.80;99.90;;;;;;5059293;28;20083;-65
2023/10/09 07:49:00;;;;;;;48.75;38.60;;;24.70;99.90;;;;;;5062001;28;20049;-64
2023/10/09 07:51:32;;;;;;;53.75;40.00;;;24.60;99.90;;;;;;5058040;28;20056;-64
2023/10/09 07:54:08;;;;;;;50.83;38.83;;;23.10;99.90;;;;;;5058542;28;20048;-64
2023/10/09 07:56:45;;;;;;;51.33;40.65;;;23.80;99.90;;;;;;5059799;28;20045;-63
2023/10/09 07:59:11;;;;;;;50.70;41.90;;;23.30;99.90;;;;;;5056026;28;20051;-64
2023/10/09 08:01:52;;;;;;;48.88;40.30;;;24.30;99.90;;;;;;5061281;28;20107;-63
2023/10/09 08:07:34;;;;;;;48.38;41.33;;;23.20;99.90;;;;;;5044473;28;20045;-66
2023/10/09 08:17:59;;;;;;;45.95;40.08;;;23.30;99.90;;;;;;5062849;28;20060;-66
2023/10/09 08:20:26;;;;;;;51.88;40.92;;;23.40;99.90;;;;;;5063555;28;20044;-66
2023/10/09 08:22:55;;;;;;;59.42;39.67;;;24.80;99.90;;;;;;5064176;28;20423;-67
2023/10/09 08:25:29;;;;;;;49.75;41.35;;;24.80;99.90;;;;;;5043902;28;20052;-67
2023/10/09 08:28:38;;;;;;;43.95;39.15;;;24.80;99.90;;;;;;5056015;28;20098;-67
2023/10/09 08:30:49;;;;;;;50.03;39.80;;;24.50;99.90;;;;;;5067238;28;20052;-66
2023/10/09 08:33:40;;;;;;;48.38;38.53;;;24.90;99.90;;;;;;5065237;28;20105;-66
2023/10/09 08:36:07;;;;;;;48.40;39.45;;;23.60;99.90;;;;;;5063488;28;20829;-66
2023/10/09 08:38:33;;;;;;;49.20;40.72;;;23.40;99.90;;;;;;5060346;28;20044;-67
2023/10/09 08:41:19;;;;;;;47.38;38.47;;;23.40;99.90;;;;;;5066803;28;20076;-66
2023/10/09 08:43:51;;;;;;;46.20;38.20;;;23.80;99.90;;;;;;5064674;28;20118;-68
2023/10/09 08:46:23;;;;;;;45.03;39.35;;;24.90;99.90;;;;;;5056792;28;20437;-67
2023/10/09 08:48:49;;;;;;;45.85;38.60;;;24.90;99.90;;;;;;5065234;28;20040;-67
2023/10/09 08:51:18;;;;;;;47.08;37.88;;;24.40;99.90;;;;;;5061941;28;20114;-68
2023/10/09 08:53:45;;;;;;;44.80;39.75;;;23.40;99.90;;;;;;5062304;28;20498;-67
2023/10/09 08:56:21;;;;;;;45.75;39.78;;;24.20;99.90;;;;;;5057823;28;20047;-66
2023/10/09 08:58:51;;;;;;;49.60;40.22;;;23.90;99.90;;;;;;5064377;28;20041;-67
2023/10/09 09:01:21;;;;;;;46.38;38.30;;;24.30;99.90;;;;;;5061814;28;20062;-68
2023/10/09 09:03:48;;;;;;;48.03;39.33;;;24.60;99.90;;;;;;5063038;28;20516;-67
2023/10/09 09:06:14;;;;;;;51.47;40.33;;;24.00;99.90;;;;;;5060954;28;20075;-67
2023/10/09 09:08:40;;;;;;;48.70;38.53;;;24.90;99.90;;;;;;5058782;28;20041;-67
2023/10/09 09:11:11;;;;;;;44.78;37.80;;;24.80;99.90;;;;;;5057840;28;20383;-66
2023/10/09 09:13:38;;;;;;;50.58;37.97;;;24.50;99.90;;;;;;5064888;28;20409;-67
2023/10/09 09:16:03;;;;;;;47.45;37.92;;;24.40;99.90;;;;;;5057240;28;20033;-66
2023/10/09 09:18:36;;;;;;;51.80;39.00;;;24.90;99.90;;;;;;5061137;28;20046;-66
2023/10/09 09:21:22;;;;;;;49.58;39.15;;;25.10;99.90;;;;;;5056304;28;20450;-66
2023/10/09 09:24:01;;;;;;;53.60;40.00;;;24.00;99.90;;;;;;5055613;28;20088;-66
2023/10/09 09:26:44;;;;;;;51.22;41.10;;;25.00;99.90;;;;;;5054848;28;20043;-66
2023/10/09 09:29:11;;;;;;;49.38;40.80;;;23.60;99.90;;;;;;5058878;28;20071;-66
2023/10/09 09:31:41;;;;;;;51.17;40.15;;;25.40;99.90;;;;;;5058865;28;20410;-66
2023/10/09 09:34:17;;;;;;;50.20;41.03;;;25.50;99.90;;;;;;5058415;28;20347;-66
2023/10/09 09:36:57;;;;;;;48.38;40.35;;;24.10;99.90;;;;;;5057040;28;20449;-66
2023/10/09 09:39:28;;;;;;;51.97;40.75;;;23.60;99.90;;;;;;5060493;28;20110;-66
2023/10/09 09:42:07;;;;;;;46.20;40.33;;;24.50;99.90;;;;;;5061063;28;20044;-66
2023/10/09 09:44:43;;;;;;;51.65;40.92;;;25.00;99.90;;;;;;5055415;28;20098;-66
2023/10/09 09:47:13;;;;;;;51.58;40.33;;;24.60;99.90;;;;;;5048152;28;20135;-66
2023/10/09 09:49:41;;;;;;;47.38;38.92;;;25.40;99.90;;;;;;5056122;28;20093;-66
2023/10/09 09:52:10;;;;;;;49.97;41.17;;;24.40;99.90;;;;;;5060726;28;20659;-66
2023/10/09 09:54:37;;;;;;;48.75;39.45;;;24.10;99.90;;;;;;5055716;28;20048;-66
2023/10/09 09:57:10;;;;;;;50.42;41.60;;;24.10;99.90;;;;;;5061552;28;20405;-66
2023/10/09 09:59:40;;;;;;;47.33;39.70;;;23.70;99.90;;;;;;5064486;28;20052;-66
2023/10/09 10:02:10;;;;;;;49.83;40.70;;;24.60;99.90;;;;;;5060690;28;20091;-66
2023/10/09 10:04:39;;;;;;;44.63;39.40;;;25.00;99.90;;;;;;5066822;28;20747;-66
2023/10/09 10:07:12;;;;;;;53.35;40.10;;;25.40;99.90;;;;;;5060381;28;20053;-66
2023/10/09 10:09:39;;;;;;;44.83;38.33;;;25.30;99.90;;;;;;5055356;28;20041;-67
2023/10/09 10:12:09;;;;;;;44.63;39.70;;;24.10;99.90;;;;;;5057565;28;20056;-67
2023/10/09 10:14:56;;;;;;;45.97;39.65;;;24.90;99.90;;;;;;5062765;28;20036;-67
2023/10/09 10:17:22;;;;;;;51.88;38.55;;;24.80;99.90;;;;;;5057127;28;20847;-66
2023/10/09 10:19:59;;;;;;;48.90;39.20;;;25.00;99.90;;;;;;5060857;28;20521;-66
2023/10/09 10:22:30;;;;;;;42.97;38.30;;;25.40;99.90;;;;;;5064546;28;20072;-66
2023/10/09 10:24:57;;;;;;;48.20;38.80;;;25.20;99.90;;;;;;5063764;28;20048;-66
2023/10/09 10:27:31;;;;;;;46.63;39.72;;;25.30;99.90;;;;;;5066669;28;20055;-66
2023/10/09 10:30:18;;;;;;;47.92;39.00;;;25.20;99.90;;;;;;5069554;28;20590;-66
2023/10/09 10:33:09;;;;;;;46.20;38.33;;;24.70;99.90;;;;;;5064757;28;20051;-66
2023/10/09 10:38:36;;;;;;;48.42;39.05;;;23.80;99.90;;;;;;5063710;28;20044;-66
2023/10/09 10:41:11;;;;;;;46.25;37.42;;;24.00;99.90;;;;;;5049161;28;20048;-66
2023/10/09 10:46:34;;;;;;;55.65;37.80;;;24.10;99.90;;;;;;5063189;28;20417;-66
2023/10/09 10:49:14;;;;;;;41.28;35.33;;;24.60;99.90;;;;;;5068662;28;20631;-66
2023/10/09 10:51:41;;;;;;;41.22;36.03;;;24.90;99.90;;;;;;5063875;28;20059;-66
2023/10/09 10:54:45;;;;;;;43.17;36.08;;;24.30;99.90;;;;;;5067855;28;20088;-66
2023/10/09 10:57:29;;;;;;;44.00;36.30;;;24.30;99.90;;;;;;5062650;28;20074;-66
2023/10/09 11:00:14;;;;;;;43.67;39.22;;;25.50;99.90;;;;;;5069301;28;20447;-66
2023/10/09 11:02:43;;;;;;;45.47;40.58;;;25.70;99.90;;;;;;5064454;28;20071;-66
2023/10/09 11:05:23;;;;;;;47.55;39.88;;;25.90;99.90;;;;;;5062223;28;20249;-66
2023/10/09 11:07:52;;;;;;;44.55;37.83;;;25.60;99.90;;;;;;5060952;28;20040;-66
2023/10/09 11:10:29;;;;;;;46.38;37.83;;;25.80;99.90;;;;;;5061873;28;20516;-66
2023/10/09 11:15:44;;;;;;;47.63;38.20;;;24.50;99.90;;;;;;5067492;28;20052;-66
2023/10/09 11:18:19;;;;;;;48.97;38.55;;;25.50;99.90;;;;;;5065208;28;20465;-66
2023/10/09 11:23:53;;;;;;;49.90;39.38;;;25.20;99.90;;;;;;5063152;28;20524;-66
2023/10/09 11:26:28;;;;;;;45.38;37.80;;;25.70;99.90;;;;;;5063772;28;20671;-66
2023/10/09 11:29:26;;;;;;;45.80;37.10;;;25.10;99.90;;;;;;5061510;28;20044;-66
2023/10/09 11:32:14;;;;;;;47.88;38.50;;;25.30;99.90;;;;;;5056706;28;20071;-66
2023/10/09 11:34:45;;;;;;;51.13;38.33;;;25.80;99.90;;;;;;5066239;28;20044;-66
2023/10/09 11:37:32;;;;;;;44.22;36.85;;;24.80;99.90;;;;;;5063675;28;20414;-65
2023/10/09 11:40:00;;;;;;;50.00;38.33;;;25.20;99.90;;;;;;5065790;28;20111;-65
2023/10/09 11:42:49;;;;;;;46.47;38.47;;;25.60;99.90;;;;;;5066618;28;20094;-65
2023/10/09 11:45:29;;;;;;;41.20;36.60;;;25.10;99.90;;;;;;5063107;28;20040;-64
2023/10/09 11:47:59;;;;;;;48.03;37.47;;;25.80;99.90;;;;;;5063280;28;20049;-65
2023/10/09 11:51:18;;;;;;;40.30;35.45;;;24.60;99.90;;;;;;5062705;28;20040;-64
2023/10/09 11:53:50;;;;;;;43.88;34.80;;;24.60;99.90;;;;;;5058303;28;20342;-65
2023/10/09 11:56:19;;;;;;;45.65;35.80;;;24.50;99.90;;;;;;5058947;28;20392;-65
2023/10/09 11:58:52;;;;;;;40.47;35.40;;;25.00;99.90;;;;;;5058250;28;20044;-66
2023/10/09 12:01:20;;;;;;;42.13;35.30;;;24.40;99.90;;;;;;5060993;28;20136;-64
2023/10/09 12:03:53;;;;;;;42.63;35.90;;;24.80;99.90;;;;;;5063082;28;20090;-65
2023/10/09 12:06:22;;;;;;;38.72;34.53;;;24.30;99.90;;;;;;5065153;28;20093;-65
2023/10/09 12:08:48;;;;;;;40.13;35.85;;;25.20;99.90;;;;;;5058464;28;20036;-65
2023/10/09 12:11:22;;;;;;;40.65;35.53;;;24.20;99.90;;;;;;5061276;28;20067;-65
2023/10/09 12:13:56;;;;;;;45.45;36.58;;;24.30;99.90;;;;;;5063018;28;20131;-65
2023/10/09 12:16:27;;;;;;;47.95;37.75;;;24.70;99.90;;;;;;5058947;28;20071;-65
2023/10/09 12:18:57;;;;;;;40.55;35.78;;;25.50;99.90;;;;;;5060436;28;20521;-65
2023/10/09 12:21:23;;;;;;;43.80;37.08;;;24.40;99.90;;;;;;5054959;28;20498;-64
2023/10/09 12:23:49;;;;;;;41.67;36.10;;;24.30;99.90;;;;;;5062298;28;20139;-64
2023/10/09 12:26:15;;;;;;;41.70;36.35;;;24.80;99.90;;;;;;5056168;28;20125;-65
2023/10/09 12:28:45;;;;;;;41.13;36.78;;;25.70;99.90;;;;;;5062512;28;20041;-64
2023/10/09 12:31:20;;;;;;;40.75;36.75;;;24.40;99.90;;;;;;5064672;28;20051;-65
2023/10/09 12:33:47;;;;;;;41.10;36.75;;;24.90;99.90;;;;;;5057997;28;20041;-65
2023/10/09 12:36:19;;;;;;;42.47;37.78;;;25.30;99.90;;;;;;5057510;28;20036;-64
2023/10/09 12:38:50;;;;;;;43.38;37.25;;;24.50;99.90;;;;;;5065672;28;20044;-64
2023/10/09 12:41:35;;;;;;;39.78;35.47;;;24.20;99.90;;;;;;5054509;28;20177;-64
2023/10/09 12:44:01;;;;;;;41.75;36.47;;;24.80;99.90;;;;;;5059538;28;20052;-64
2023/10/09 12:46:27;;;;;;;39.58;35.33;;;25.30;99.90;;;;;;5060372;28;20066;-62
2023/10/09 12:48:57;;;;;;;38.75;34.53;;;24.40;99.90;;;;;;5052671;28;20048;-62
2023/10/09 12:51:29;;;;;;;38.45;34.20;;;24.80;99.90;;;;;;5052582;28;20061;-63
2023/10/09 12:54:01;;;;;;;41.50;35.42;;;24.40;99.90;;;;;;5058941;28;20783;-62
2023/10/09 12:56:37;;;;;;;41.78;35.78;;;25.40;99.90;;;;;;5053437;28;20045;-63
2023/10/09 12:59:04;;;;;;;41.88;37.28;;;24.30;99.90;;;;;;5058884;28;20037;-64
2023/10/09 13:01:42;;;;;;;42.20;36.05;;;25.50;99.90;;;;;;5054198;28;20044;-64
2023/10/09 13:04:11;;;;;;;36.05;32.30;;;24.40;99.90;;;;;;5066081;28;20679;-62
2023/10/09 13:06:43;;;;;;;39.50;33.58;;;24.70;99.90;;;;;;5054395;28;20495;-66
2023/10/09 13:09:13;;;;;;;38.70;33.03;;;24.20;99.90;;;;;;5056926;28;20057;-63
2023/10/09 13:11:43;;;;;;;42.63;35.85;;;25.40;99.90;;;;;;5058309;28;20032;-63
2023/10/09 13:14:21;;;;;;;42.50;37.10;;;25.30;99.90;;;;;;5059335;28;20048;-63
2023/10/09 13:16:50;;;;;;;40.40;36.05;;;25.40;99.90;;;;;;5053589;28;20399;-64
2023/10/09 13:19:17;;;;;;;44.40;35.75;;;25.40;99.90;;;;;;5062565;28;20036;-63
2023/10/09 13:21:43;;;;;;;44.40;35.47;;;24.20;99.90;;;;;;5059389;28;20106;-65
2023/10/09 13:24:13;;;;;;;44.13;37.13;;;25.20;99.90;;;;;;5061460;28;20395;-63
2023/10/09 13:26:40;;;;;;;41.17;35.88;;;24.30;99.90;;;;;;5055904;28;20037;-63
2023/10/09 13:29:11;;;;;;;44.53;36.53;;;24.10;99.90;;;;;;5064329;28;20048;-63
2023/10/09 13:31:46;;;;;;;46.70;36.70;;;24.10;99.90;;;;;;5057272;28;20039;-64
2023/10/09 13:34:14;;;;;;;39.47;35.50;;;24.10;99.90;;;;;;5058834;28;20144;-63
2023/10/09 13:36:52;;;;;;;42.00;35.67;;;25.00;99.90;;;;;;5055331;28;20505;-62
2023/10/09 13:41:48;;;;;;;39.40;35.28;;;24.00;99.90;;;;;;5061364;28;20102;-64
2023/10/09 13:44:14;;;;;;;39.00;34.40;;;24.50;99.90;;;;;;5051566;28;20598;-62
2023/10/09 13:46:42;;;;;;;41.67;33.63;;;24.80;99.90;;;;;;5055316;28;20075;-64
2023/10/09 13:49:12;;;;;;;37.13;33.22;;;25.20;99.90;;;;;;5053093;28;20131;-62
2023/10/09 13:51:43;;;;;;;38.15;34.03;;;24.30;99.90;;;;;;5060970;28;20410;-63
2023/10/09 13:54:28;;;;;;;33.35;29.85;;;24.80;99.90;;;;;;5064178;28;20750;-63
2023/10/09 13:56:54;;;;;;;35.90;32.60;;;25.00;99.90;;;;;;5060491;28;20066;-64
2023/10/09 13:59:22;;;;;;;35.92;32.45;;;24.30;99.90;;;;;;5060984;28;20499;-63
2023/10/09 14:01:49;;;;;;;35.13;31.30;;;24.60;99.90;;;;;;5055069;28;20086;-64
2023/10/09 14:04:19;;;;;;;33.15;29.77;;;25.10;99.90;;;;;;5053919;28;20037;-64
2023/10/09 14:06:44;;;;;;;33.20;30.02;;;24.30;99.90;;;;;;5055000;28;20044;-63
2023/10/09 14:09:11;;;;;;;33.65;30.13;;;24.60;99.90;;;;;;5056589;28;20068;-64
2023/10/09 14:11:37;;;;;;;35.15;31.38;;;24.90;99.90;;;;;;5056763;28;20040;-63
2023/10/09 14:14:09;;;;;;;34.47;30.92;;;25.50;99.90;;;;;;5056904;28;20055;-64
2023/10/09 14:16:42;;;;;;;35.03;31.33;;;24.40;99.90;;;;;;5058965;28;20048;-64
2023/10/09 14:19:12;;;;;;;34.53;30.60;;;25.00;99.90;;;;;;5059507;28;20080;-63
2023/10/09 14:21:40;;;;;;;36.42;31.95;;;24.40;99.90;;;;;;5056259;28;20063;-64
2023/10/09 14:24:15;;;;;;;33.85;30.25;;;24.20;99.90;;;;;;5055199;28;20059;-63
2023/10/09 14:26:42;;;;;;;31.17;28.08;;;24.30;99.90;;;;;;5054214;28;20106;-63
2023/10/09 14:29:07;;;;;;;31.45;28.40;;;24.70;99.90;;;;;;5058555;28;20036;-64
2023/10/09 14:31:38;;;;;;;32.30;29.00;;;24.40;99.90;;;;;;5060530;28;20048;-63
2023/10/09 14:34:05;;;;;;;33.45;28.35;;;24.20;99.90;;;;;;5059910;28;20110;-63
2023/10/09 14:36:33;;;;;;;31.98;28.85;;;24.20;99.90;;;;;;5054177;28;20123;-64
2023/10/09 14:39:04;;;;;;;30.98;27.67;;;24.20;99.90;;;;;;5060981;28;20040;-64
2023/10/09 14:41:33;;;;;;;33.67;30.30;;;24.10;99.90;;;;;;5054963;28;20049;-63
2023/10/09 14:43:59;;;;;;;34.83;31.10;;;24.70;99.90;;;;;;5061901;28;20665;-64
2023/10/09 14:46:28;;;;;;;34.05;30.55;;;24.70;99.90;;;;;;5061009;28;20041;-63
2023/10/09 14:48:54;;;;;;;33.13;30.02;;;24.70;99.90;;;;;;5061598;28;20177;-63
2023/10/09 14:51:26;;;;;;;33.22;29.92;;;24.20;99.90;;;;;;5057628;28;20052;-64
2023/10/09 14:53:53;;;;;;;34.63;31.20;;;24.70;99.90;;;;;;5057341;28;20036;-63
2023/10/09 14:56:28;;;;;;;33.55;30.05;;;24.80;99.90;;;;;;5061676;28;20560;-64
2023/10/09 14:58:58;;;;;;;34.13;30.67;;;24.80;99.90;;;;;;5061781;28;20419;-64
2023/10/09 15:01:28;;;;;;;33.28;30.02;;;24.60;99.90;;;;;;5062788;28;20095;-64
2023/10/09 15:03:59;;;;;;;31.23;28.33;;;24.30;99.90;;;;;;5067307;28;20093;-63
2023/10/09 15:06:27;;;;;;;35.97;32.67;;;24.40;99.90;;;;;;5062995;28;20124;-68
2023/10/09 15:08:55;;;;;;;31.75;28.58;;;24.20;99.90;;;;;;5067267;28;20052;-67
2023/10/09 15:11:25;;;;;;;32.70;29.33;;;24.00;99.90;;;;;;5064061;28;20048;-67
2023/10/09 15:13:53;;;;;;;32.97;29.95;;;24.60;99.90;;;;;;5063186;28;20080;-67